createdAt,value
2023-03-05T00:02:03.369Z,99525.03
2023-03-05T00:04:32.198Z,99515.34
2023-03-05T00:07:00.821Z,99515.28
2023-03-05T00:09:31.168Z,99507.28
2023-03-05T00:11:59.576Z,99513.25
2023-03-05T00:14:28.271Z,99517.34
2023-03-05T00:16:56.538Z,99508.50
2023-03-05T00:19:26.980Z,99512.78
2023-03-05T00:22:01.525Z,99521.19
2023-03-05T00:24:30.002Z,99517.84
2023-03-05T00:27:00.700Z,99529.69
2023-03-05T00:29:31.721Z,99525.97
2023-03-05T00:32:12.962Z,99525.84
2023-03-05T00:34:41.209Z,99525.63
2023-03-05T00:37:09.575Z,99525.88
2023-03-05T00:39:40.530Z,99529.56
2023-03-05T00:42:08.858Z,99535.25
2023-03-05T00:44:39.832Z,99538.16
2023-03-05T00:47:08.123Z,99542.22
2023-03-05T00:49:39.905Z,99539.13
2023-03-05T00:52:17.348Z,99538.28
2023-03-05T00:54:45.402Z,99547.19
2023-03-05T00:57:13.729Z,99538.09
2023-03-05T00:59:43.330Z,99552.19
2023-03-05T01:02:12.162Z,99557.91
2023-03-05T01:04:40.592Z,99552.75
2023-03-05T01:07:10.136Z,99556.59
2023-03-05T01:09:38.816Z,99556.78
2023-03-05T01:12:08.126Z,99568.75
2023-03-05T01:14:38.936Z,99546.19
2023-03-05T01:17:09.807Z,99556.06
2023-03-05T01:19:43.016Z,99549.41
2023-03-05T01:22:11.264Z,99563.03
2023-03-05T01:24:39.487Z,99548.69
2023-03-05T01:27:07.906Z,99546.75
2023-03-05T01:29:37.186Z,99555.63
2023-03-05T01:32:06.067Z,99578.78
2023-03-05T01:34:34.370Z,99576.78
2023-03-05T01:37:04.298Z,99572.84
2023-03-05T01:39:33.482Z,99560.28
2023-03-05T01:42:01.632Z,99574.41
2023-03-05T01:44:31.289Z,99580.22
2023-03-05T01:46:59.934Z,99577.66
2023-03-05T01:49:30.796Z,99577.06
2023-03-05T01:52:12.257Z,99575.53
2023-03-05T01:54:54.306Z,99576.72
2023-03-05T01:57:33.154Z,99575.59
2023-03-05T02:00:10.049Z,99579.34
2023-03-05T02:02:38.520Z,99590.72
2023-03-05T02:05:12.140Z,99589.09
2023-03-05T02:07:43.478Z,99597.53
2023-03-05T02:10:21.500Z,99589.91
2023-03-05T02:12:50.340Z,99606.50
2023-03-05T02:15:30.750Z,99607.78
2023-03-05T02:18:02.342Z,99614.50
2023-03-05T02:20:49.505Z,99626.19
2023-03-05T02:23:21.256Z,99633.53
2023-03-05T02:25:50.178Z,99631.75
2023-03-05T02:28:28.736Z,99638.03
2023-03-05T02:30:58.213Z,99640.59
2023-03-05T02:33:27.687Z,99635.16
2023-03-05T02:35:55.867Z,99635.41
2023-03-05T02:38:24.608Z,99636.84
2023-03-05T02:40:56.650Z,99631.66
2023-03-05T02:43:24.792Z,99626.34
2023-03-05T02:45:55.167Z,99633.75
2023-03-05T02:48:23.969Z,99633.53
2023-03-05T02:50:53.036Z,99639.94
2023-03-05T02:53:21.374Z,99638.53
2023-03-05T02:55:50.325Z,99637.97
2023-03-05T02:58:18.675Z,99634.56
2023-03-05T03:00:49.820Z,99630.81
2023-03-05T03:03:20.826Z,99635.19
2023-03-05T03:05:48.990Z,99638.81
2023-03-05T03:08:17.251Z,99627.94
2023-03-05T03:10:46.005Z,99630.94
2023-03-05T03:13:15.905Z,99631.66
2023-03-05T03:15:48.967Z,99641.53
2023-03-05T03:18:17.392Z,99638.38
2023-03-05T03:20:46.038Z,99644.22
2023-03-05T03:23:17.820Z,99647.25
2023-03-05T03:25:45.812Z,99654.28
2023-03-05T03:28:14.709Z,99655.41
2023-03-05T03:30:42.835Z,99660.00
2023-03-05T03:33:10.932Z,99661.41
2023-03-05T03:35:39.458Z,99662.66
2023-03-05T03:38:07.502Z,99660.25
2023-03-05T03:40:37.694Z,99676.69
2023-03-05T03:43:05.942Z,99666.84
2023-03-05T03:45:33.965Z,99669.72
2023-03-05T03:48:02.380Z,99672.59
2023-03-05T03:50:30.966Z,99671.75
2023-03-05T03:52:59.099Z,99661.41
2023-03-05T03:55:28.870Z,99665.13
2023-03-05T03:57:56.809Z,99662.00
2023-03-05T04:00:25.216Z,99669.13
2023-03-05T04:02:54.279Z,99660.50
2023-03-05T04:05:22.699Z,99656.22
2023-03-05T04:07:50.497Z,99658.00
2023-03-05T04:10:18.786Z,99653.34
2023-03-05T04:12:47.003Z,99650.31
2023-03-05T04:15:19.384Z,99649.47
2023-03-05T04:17:48.064Z,99649.28
2023-03-05T04:20:17.824Z,99655.53
2023-03-05T04:22:49.692Z,99660.44
2023-03-05T04:25:17.646Z,99663.25
2023-03-05T04:27:45.816Z,99666.59
2023-03-05T04:30:33.721Z,99666.47
2023-03-05T04:33:02.035Z,99664.34
2023-03-05T04:35:30.111Z,99665.72
2023-03-05T04:38:00.929Z,99676.31
2023-03-05T04:40:29.379Z,99679.63
2023-03-05T04:42:57.441Z,99685.59
2023-03-05T04:45:25.846Z,99681.28
2023-03-05T04:47:56.260Z,99688.88
2023-03-05T04:50:26.846Z,99685.25
2023-03-05T04:52:57.826Z,99687.72
2023-03-05T04:55:25.766Z,99691.63
2023-03-05T04:57:57.535Z,99685.34
2023-03-05T05:00:25.978Z,99679.97
2023-03-05T05:02:55.632Z,99687.44
2023-03-05T05:05:26.752Z,99700.16
2023-03-05T05:08:02.643Z,99699.88
2023-03-05T05:10:31.974Z,99715.56
2023-03-05T05:12:59.814Z,99719.09
2023-03-05T05:15:27.931Z,99722.78
2023-03-05T05:17:56.067Z,99722.72
2023-03-05T05:20:26.603Z,99722.38
2023-03-05T05:22:54.719Z,99725.66
2023-03-05T05:25:22.777Z,99734.75
2023-03-05T05:27:51.257Z,99751.16
2023-03-05T05:30:19.512Z,99750.28
2023-03-05T05:32:51.386Z,99744.81
2023-03-05T05:35:19.537Z,99756.22
2023-03-05T05:37:47.536Z,99750.38
2023-03-05T05:40:35.817Z,99760.34
2023-03-05T05:43:03.930Z,99764.06
2023-03-05T05:45:34.056Z,99748.31
2023-03-05T05:48:02.286Z,99758.28
2023-03-05T05:50:30.593Z,99771.22
2023-03-05T05:52:58.978Z,99764.16
2023-03-05T05:55:27.169Z,99766.34
2023-03-05T05:58:15.124Z,99759.69
2023-03-05T06:00:45.474Z,99756.72
2023-03-05T06:03:16.239Z,99768.16
2023-03-05T06:05:44.216Z,99771.84
2023-03-05T06:08:12.154Z,99773.69
2023-03-05T06:10:40.061Z,99781.19
2023-03-05T06:13:13.233Z,99779.69
2023-03-05T06:15:42.787Z,99775.00
2023-03-05T06:18:13.578Z,99792.69
2023-03-05T06:20:42.392Z,99788.53
2023-03-05T06:23:11.161Z,99793.19
2023-03-05T06:25:39.679Z,99798.88
2023-03-05T06:28:08.197Z,99798.47
2023-03-05T06:30:36.414Z,99802.47
2023-03-05T06:33:05.139Z,99804.97
2023-03-05T06:35:33.898Z,99806.06
2023-03-05T06:38:02.100Z,99810.03
2023-03-05T06:40:30.338Z,99799.81
2023-03-05T06:43:01.584Z,99811.75
2023-03-05T06:45:29.972Z,99812.03
2023-03-05T06:47:58.591Z,99806.22
2023-03-05T06:50:26.644Z,99812.22
2023-03-05T06:52:54.944Z,99816.09
2023-03-05T06:55:24.936Z,99816.47
2023-03-05T06:57:53.474Z,99823.81
2023-03-05T07:00:23.163Z,99817.78
2023-03-05T07:02:51.621Z,99823.78
2023-03-05T07:05:19.666Z,99819.81
2023-03-05T07:07:50.192Z,99825.78
2023-03-05T07:10:19.115Z,99832.81
2023-03-05T07:12:53.293Z,99836.06
2023-03-05T07:15:22.269Z,99833.94
2023-03-05T07:17:50.676Z,99846.34
2023-03-05T07:20:20.177Z,99841.94
2023-03-05T07:22:58.746Z,99852.88
2023-03-05T07:25:26.832Z,99845.47
2023-03-05T07:27:55.049Z,99840.63
2023-03-05T07:30:24.922Z,99837.56
2023-03-05T07:32:53.059Z,99845.56
2023-03-05T07:35:24.855Z,99848.81
2023-03-05T07:37:55.184Z,99840.63
2023-03-05T07:40:23.472Z,99837.22
2023-03-05T07:42:51.696Z,99836.16
2023-03-05T07:45:19.836Z,99845.28
2023-03-05T07:47:48.286Z,99841.66
2023-03-05T07:50:17.223Z,99830.44
2023-03-05T07:52:45.749Z,99844.31
2023-03-05T07:55:27.731Z,99831.41
2023-03-05T07:57:56.632Z,99841.97
2023-03-05T08:00:24.745Z,99831.97
2023-03-05T08:02:53.002Z,99834.44
2023-03-05T08:05:25.267Z,99831.78
2023-03-05T08:07:55.175Z,99823.13
2023-03-05T08:10:23.593Z,99832.63
2023-03-05T08:12:51.968Z,99837.41
2023-03-05T08:15:22.746Z,99835.09
2023-03-05T08:17:50.994Z,99837.19
2023-03-05T08:20:19.558Z,99830.06
2023-03-05T08:22:48.240Z,99834.25
2023-03-05T08:25:18.272Z,99849.28
2023-03-05T08:27:48.383Z,99845.56
2023-03-05T08:30:20.679Z,99851.28
2023-03-05T08:32:50.318Z,99847.16
2023-03-05T08:35:18.524Z,99852.13
2023-03-05T08:37:47.452Z,99838.66
2023-03-05T08:40:18.830Z,99843.84
2023-03-05T08:42:46.887Z,99854.56
2023-03-05T08:45:15.471Z,99853.78
2023-03-05T08:47:43.874Z,99858.53
2023-03-05T08:50:15.355Z,99856.75
2023-03-05T08:52:44.347Z,99870.16
2023-03-05T08:55:15.679Z,99855.00
2023-03-05T08:57:44.060Z,99858.56
2023-03-05T09:00:13.044Z,99867.91
2023-03-05T09:02:41.560Z,99848.88
2023-03-05T09:05:10.260Z,99879.06
2023-03-05T09:07:38.475Z,99863.47
2023-03-05T09:10:07.888Z,99870.41
2023-03-05T09:12:40.757Z,99861.25
2023-03-05T09:15:12.703Z,99864.50
2023-03-05T09:17:42.329Z,99868.88
2023-03-05T09:20:14.481Z,99870.50
2023-03-05T09:22:45.366Z,99864.81
2023-03-05T09:25:13.792Z,99860.50
2023-03-05T09:27:42.156Z,99873.19
2023-03-05T09:30:16.072Z,99879.53
2023-03-05T09:33:00.197Z,99873.06
2023-03-05T09:35:28.868Z,99882.56
2023-03-05T09:37:57.778Z,99877.91
2023-03-05T09:40:27.947Z,99867.22
2023-03-05T09:43:06.321Z,99872.88
2023-03-05T09:45:45.341Z,99874.56
2023-03-05T09:48:26.827Z,99879.78
2023-03-05T09:51:06.063Z,99871.47
2023-03-05T09:53:48.282Z,99877.78
2023-03-05T09:56:21.993Z,99872.13
2023-03-05T09:58:56.097Z,99871.75
2023-03-05T10:01:29.629Z,99872.34
2023-03-05T10:04:46.536Z,99870.41
2023-03-05T10:07:19.138Z,99865.63
2023-03-05T10:10:14.571Z,99871.06
2023-03-05T10:12:49.360Z,99866.19
2023-03-05T10:15:32.020Z,99871.06
2023-03-05T10:18:31.028Z,99862.31
2023-03-05T10:21:07.040Z,99854.09
2023-03-05T10:24:03.370Z,99863.91
2023-03-05T10:26:57.670Z,99854.09
2023-03-05T10:29:41.342Z,99855.69
2023-03-05T10:32:23.675Z,99860.34
2023-03-05T10:35:33.674Z,99859.41
2023-03-05T10:38:31.996Z,99848.53
2023-03-05T10:41:08.387Z,99855.19
2023-03-05T10:43:49.035Z,99846.84
2023-03-05T10:46:22.447Z,99852.41
2023-03-05T10:49:01.568Z,99846.75
2023-03-05T10:51:36.915Z,99846.38
2023-03-05T10:54:11.323Z,99847.72
2023-03-05T10:56:39.490Z,99850.28
2023-03-05T10:59:08.350Z,99853.28
2023-03-05T11:01:37.979Z,99837.38
2023-03-05T11:04:08.301Z,99846.59
2023-03-05T11:06:42.306Z,99848.53
2023-03-05T11:09:29.775Z,99839.88
2023-03-05T11:12:10.960Z,99840.94
2023-03-05T11:15:03.405Z,99841.13
2023-03-05T11:17:33.225Z,99832.50
2023-03-05T11:20:31.458Z,99838.47
2023-03-05T11:23:17.211Z,99831.53
2023-03-05T11:26:05.101Z,99822.25
2023-03-05T11:28:52.389Z,99843.53
2023-03-05T11:31:24.713Z,99828.56
2023-03-05T11:34:03.735Z,99826.63
2023-03-05T11:36:41.069Z,99831.44
2023-03-05T11:39:17.752Z,99837.84
2023-03-05T11:41:50.085Z,99833.56
2023-03-05T11:44:41.401Z,99826.84
2023-03-05T11:47:25.318Z,99826.72
2023-03-05T11:50:33.318Z,99820.88
2023-03-05T11:53:13.058Z,99833.03
2023-03-05T11:55:44.024Z,99833.56
2023-03-05T11:58:41.742Z,99831.09
2023-03-05T12:01:22.606Z,99829.41
2023-03-05T12:03:56.037Z,99825.44
2023-03-05T12:06:41.356Z,99818.31
2023-03-05T12:09:20.301Z,99817.22
2023-03-05T12:12:12.668Z,99824.59
2023-03-05T12:14:51.777Z,99832.28
2023-03-05T12:17:51.107Z,99830.47
2023-03-05T12:21:03.267Z,99833.91
2023-03-05T12:23:48.645Z,99821.59
2023-03-05T12:26:56.355Z,99827.06
2023-03-05T12:29:29.560Z,99825.88
2023-03-05T12:32:01.624Z,99831.75
2023-03-05T12:34:43.041Z,99817.34
2023-03-05T12:37:25.553Z,99828.34
2023-03-05T12:40:13.211Z,99825.34
2023-03-05T12:43:02.823Z,99823.19
2023-03-05T12:45:34.396Z,99816.16
2023-03-05T12:48:04.796Z,99821.69
2023-03-05T12:50:39.017Z,99819.16
2023-03-05T12:53:07.446Z,99816.16
2023-03-05T12:56:01.021Z,99814.19
2023-03-05T12:58:54.342Z,99817.81
2023-03-05T13:02:01.542Z,99820.34
2023-03-05T13:04:32.856Z,99822.47
2023-03-05T13:07:15.916Z,99813.78
2023-03-05T13:10:00.049Z,99814.34
2023-03-05T13:12:59.920Z,99802.16
2023-03-05T13:15:29.314Z,99796.69
2023-03-05T13:18:03.662Z,99793.53
2023-03-05T13:20:41.701Z,99805.72
2023-03-05T13:23:23.438Z,99806.69
2023-03-05T13:26:15.704Z,99807.16
2023-03-05T13:28:46.232Z,99798.28
2023-03-05T13:31:18.899Z,99796.50
2023-03-05T13:33:54.484Z,99795.38
2023-03-05T13:36:25.742Z,99794.97
2023-03-05T13:38:55.027Z,99795.16
2023-03-05T13:41:25.573Z,99791.00
2023-03-05T13:43:56.073Z,99787.81
2023-03-05T13:46:26.672Z,99789.00
2023-03-05T13:49:00.927Z,99793.94
2023-03-05T13:51:43.832Z,99792.88
2023-03-05T13:54:15.788Z,99787.63
2023-03-05T13:56:50.632Z,99789.47
2023-03-05T13:59:21.877Z,99792.97
2023-03-05T14:02:17.465Z,99790.63
2023-03-05T14:04:46.419Z,99779.09
2023-03-05T14:07:28.480Z,99787.19
2023-03-05T14:10:00.323Z,99779.50
2023-03-05T14:12:39.946Z,99791.38
2023-03-05T14:15:34.174Z,99796.38
2023-03-05T14:18:20.310Z,99798.38
2023-03-05T14:21:09.251Z,99798.34
2023-03-05T14:23:39.031Z,99791.78
2023-03-05T14:26:29.204Z,99803.44
2023-03-05T14:29:03.173Z,99803.84
2023-03-05T14:31:50.011Z,99805.06
2023-03-05T14:34:32.411Z,99804.09
2023-03-05T14:37:03.640Z,99804.47
2023-03-05T14:39:53.558Z,99802.03
2023-03-05T14:42:39.504Z,99802.69
2023-03-05T14:45:20.874Z,99811.94
2023-03-05T14:47:51.115Z,99810.84
2023-03-05T14:50:25.065Z,99806.38
2023-03-05T14:53:16.819Z,99810.13
2023-03-05T14:55:50.720Z,99815.06
2023-03-05T14:58:29.505Z,99812.91
2023-03-05T15:01:03.559Z,99816.81
2023-03-05T15:03:33.408Z,99818.94
2023-03-05T15:06:02.122Z,99826.09
2023-03-05T15:08:33.331Z,99824.44
2023-03-05T15:11:07.144Z,99826.53
2023-03-05T15:13:36.897Z,99828.38
2023-03-05T15:16:06.165Z,99835.47
2023-03-05T15:18:37.047Z,99844.31
2023-03-05T15:21:05.234Z,99843.41
2023-03-05T15:23:36.789Z,99846.75
2023-03-05T15:26:07.695Z,99846.22
2023-03-05T15:28:39.767Z,99846.69
2023-03-05T15:31:14.758Z,99850.66
2023-03-05T15:33:42.941Z,99859.47
2023-03-05T15:36:11.607Z,99843.38
2023-03-05T15:38:42.106Z,99849.97
2023-03-05T15:41:10.315Z,99851.25
2023-03-05T15:43:42.006Z,99852.88
2023-03-05T15:46:10.139Z,99852.19
2023-03-05T15:48:40.599Z,99857.09
2023-03-05T15:51:09.699Z,99853.00
2023-03-05T15:53:37.784Z,99860.59
2023-03-05T15:56:06.826Z,99862.56
2023-03-05T15:58:37.531Z,99869.09
2023-03-05T16:01:05.863Z,99872.00
2023-03-05T16:03:37.153Z,99870.34
2023-03-05T16:06:05.558Z,99871.66
2023-03-05T16:08:37.228Z,99879.94
2023-03-05T16:11:05.610Z,99880.34
2023-03-05T16:13:34.854Z,99885.75
2023-03-05T16:16:05.587Z,99883.34
2023-03-05T16:18:35.651Z,99883.50
2023-03-05T16:21:03.738Z,99884.56
2023-03-05T16:23:31.675Z,99882.06
2023-03-05T16:26:01.642Z,99891.28
2023-03-05T16:28:30.665Z,99883.09
2023-03-05T16:30:59.172Z,99888.88
2023-03-05T16:33:30.049Z,99886.88
2023-03-05T16:36:21.133Z,99890.00
2023-03-05T16:38:50.852Z,99895.78
2023-03-05T16:41:22.538Z,99896.06
2023-03-05T16:43:54.045Z,99895.59
2023-03-05T16:46:23.715Z,99895.81
2023-03-05T16:48:51.871Z,99890.84
2023-03-05T16:51:21.606Z,99894.66
2023-03-05T16:53:50.655Z,99893.16
2023-03-05T16:56:18.895Z,99898.91
2023-03-05T16:58:53.267Z,99897.56
2023-03-05T17:01:23.244Z,99892.56
2023-03-05T17:03:54.231Z,99901.63
2023-03-05T17:06:25.173Z,99891.44
2023-03-05T17:08:54.429Z,99887.38
2023-03-05T17:11:23.432Z,99896.44
2023-03-05T17:13:53.852Z,99893.16
2023-03-05T17:16:23.770Z,99897.81
2023-03-05T17:18:53.866Z,99914.00
2023-03-05T17:21:22.058Z,99910.66
2023-03-05T17:23:50.625Z,99908.34
2023-03-05T17:26:20.043Z,99908.72
2023-03-05T17:28:48.494Z,99906.59
2023-03-05T17:31:16.974Z,99909.13
2023-03-05T17:33:46.705Z,99905.63
2023-03-05T17:36:17.321Z,99914.38
2023-03-05T17:38:48.094Z,99907.31
2023-03-05T17:41:18.446Z,99901.88
2023-03-05T17:43:47.059Z,99902.75
2023-03-05T17:46:16.087Z,99895.72
2023-03-05T17:48:44.603Z,99894.16
2023-03-05T17:51:17.005Z,99888.00
2023-03-05T17:53:46.489Z,99893.31
2023-03-05T17:56:17.568Z,99887.38
2023-03-05T17:58:46.013Z,99884.78
2023-03-05T18:01:28.365Z,99897.25
2023-03-05T18:03:56.894Z,99893.81
2023-03-05T18:06:27.931Z,99887.00
2023-03-05T18:08:59.304Z,99896.53
2023-03-05T18:11:33.837Z,99892.91
2023-03-05T18:14:06.909Z,99901.75
2023-03-05T18:16:35.499Z,99894.97
2023-03-05T18:19:03.656Z,99894.19
2023-03-05T18:21:32.421Z,99903.34
2023-03-05T18:24:00.858Z,99904.34
2023-03-05T18:26:29.398Z,99895.75
2023-03-05T18:28:57.672Z,99899.38
2023-03-05T18:31:26.001Z,99906.56
2023-03-05T18:33:54.829Z,99908.47
2023-03-05T18:36:22.997Z,99903.59
2023-03-05T18:38:51.817Z,99908.03
2023-03-05T18:41:23.977Z,99908.09
2023-03-05T18:43:54.132Z,99909.31
2023-03-05T18:46:24.049Z,99912.22
2023-03-05T18:48:55.535Z,99913.25
2023-03-05T18:51:23.873Z,99915.22
2023-03-05T18:53:55.304Z,99921.63
2023-03-05T18:56:25.401Z,99919.81
2023-03-05T18:58:53.523Z,99919.94
2023-03-05T19:01:22.053Z,99923.44
2023-03-05T19:03:49.984Z,99922.56
2023-03-05T19:06:18.288Z,99924.50
2023-03-05T19:08:56.987Z,99924.56
2023-03-05T19:11:25.268Z,99930.06
2023-03-05T19:13:53.105Z,99936.41
2023-03-05T19:16:30.693Z,99930.91
2023-03-05T19:19:20.434Z,99935.41
2023-03-05T19:21:56.663Z,99929.25
2023-03-05T19:24:26.837Z,99932.97
2023-03-05T19:27:01.371Z,99930.44
2023-03-05T19:29:34.576Z,99922.66
2023-03-05T19:32:02.656Z,99930.72
2023-03-05T19:34:31.373Z,99929.03
2023-03-05T19:36:59.533Z,99924.78
2023-03-05T19:39:33.601Z,99922.31
2023-03-05T19:42:02.057Z,99934.66
2023-03-05T19:44:31.420Z,99926.16
2023-03-05T19:46:59.368Z,99928.16
2023-03-05T19:49:32.885Z,99921.38
2023-03-05T19:52:07.308Z,99919.66
2023-03-05T19:54:35.588Z,99924.97
2023-03-05T19:57:05.805Z,99920.75
2023-03-05T19:59:34.057Z,99918.19
2023-03-05T20:02:05.312Z,99916.41
2023-03-05T20:04:35.601Z,99913.16
2023-03-05T20:07:09.475Z,99911.63
2023-03-05T20:09:37.536Z,99916.13
2023-03-05T20:12:08.194Z,99915.25
2023-03-05T20:14:40.375Z,99906.47
2023-03-05T20:17:10.120Z,99907.44
2023-03-05T20:19:39.735Z,99905.00
2023-03-05T20:22:07.715Z,99910.94
2023-03-05T20:24:36.242Z,99905.66
2023-03-05T20:27:07.086Z,99903.13
2023-03-05T20:29:39.933Z,99899.78
2023-03-05T20:32:08.758Z,99905.38
2023-03-05T20:34:36.893Z,99898.69
2023-03-05T20:37:07.806Z,99897.97
2023-03-05T20:39:38.490Z,99893.88
2023-03-05T20:42:07.076Z,99897.56
2023-03-05T20:44:36.952Z,99894.88
2023-03-05T20:47:26.311Z,99902.91
2023-03-05T20:49:57.783Z,99901.47
2023-03-05T20:52:26.952Z,99894.59
2023-03-05T20:54:58.536Z,99892.03
2023-03-05T20:57:29.992Z,99890.31
2023-03-05T20:59:58.143Z,99893.19
2023-03-05T21:02:26.841Z,99886.25
2023-03-05T21:04:57.258Z,99888.06
2023-03-05T21:07:29.986Z,99890.25
2023-03-05T21:10:00.194Z,99886.00
2023-03-05T21:12:29.870Z,99881.94
2023-03-05T21:14:58.983Z,99875.16
2023-03-05T21:17:31.472Z,99879.78
2023-03-05T21:20:01.876Z,99870.31
2023-03-05T21:22:30.409Z,99877.47
2023-03-05T21:25:16.755Z,99874.16
2023-03-05T21:27:45.725Z,99874.34
2023-03-05T21:30:19.662Z,99870.03
2023-03-05T21:32:50.256Z,99877.88
2023-03-05T21:35:22.777Z,99872.78
2023-03-05T21:37:53.887Z,99876.34
2023-03-05T21:40:23.022Z,99872.91
2023-03-05T21:42:53.504Z,99876.44
2023-03-05T21:45:24.888Z,99877.44
2023-03-05T21:47:56.606Z,99871.31
2023-03-05T21:50:25.944Z,99875.72
2023-03-05T21:52:55.548Z,99872.28
2023-03-05T21:55:31.122Z,99883.00
2023-03-05T21:58:02.598Z,99887.41
2023-03-05T22:00:30.912Z,99883.91
2023-03-05T22:03:00.118Z,99884.09
2023-03-05T22:05:28.534Z,99887.78
2023-03-05T22:07:59.513Z,99890.41
2023-03-05T22:10:29.492Z,99885.31
2023-03-05T22:13:12.424Z,99881.94
2023-03-05T22:15:52.181Z,99887.34
2023-03-05T22:18:29.799Z,99885.66
2023-03-05T22:20:59.016Z,99893.66
2023-03-05T22:23:29.923Z,99885.75
2023-03-05T22:26:00.622Z,99879.72
2023-03-05T22:28:30.284Z,99884.19
2023-03-05T22:31:01.640Z,99881.56
2023-03-05T22:33:31.100Z,99885.97
2023-03-05T22:36:00.555Z,99882.31
2023-03-05T22:38:29.381Z,99884.84
2023-03-05T22:41:09.040Z,99876.97
2023-03-05T22:43:37.977Z,99877.97
2023-03-05T22:46:11.748Z,99875.59
2023-03-05T22:48:41.455Z,99882.75
2023-03-05T22:51:10.712Z,99879.34
2023-03-05T22:53:39.879Z,99881.22
2023-03-05T22:56:13.442Z,99880.44
2023-03-05T22:58:41.708Z,99877.84
2023-03-05T23:01:23.838Z,99882.22
2023-03-05T23:03:58.973Z,99884.03
2023-03-05T23:06:27.141Z,99882.31
2023-03-05T23:08:55.383Z,99881.38
2023-03-05T23:11:23.574Z,99880.38
2023-03-05T23:13:51.980Z,99870.75
2023-03-05T23:16:20.265Z,99874.31
2023-03-05T23:18:49.364Z,99872.53
2023-03-05T23:21:17.505Z,99867.38
2023-03-05T23:23:45.832Z,99869.13
2023-03-05T23:26:14.678Z,99867.44
2023-03-05T23:28:45.293Z,99871.84
2023-03-05T23:31:13.897Z,99860.47
2023-03-05T23:33:41.887Z,99870.16
2023-03-05T23:36:13.465Z,99864.03
2023-03-05T23:38:41.970Z,99859.53
2023-03-05T23:41:10.367Z,99868.88
2023-03-05T23:43:58.339Z,99863.44
2023-03-05T23:46:26.830Z,99863.44
2023-03-05T23:48:55.405Z,99857.94
2023-03-05T23:51:23.653Z,99852.34
2023-03-05T23:53:52.480Z,99860.78
2023-03-05T23:56:21.556Z,99849.72
2023-03-05T23:58:49.751Z,99846.81
